Albion, New York
Current Conditions -  °F | °C
As of 6:54 AM on Tuesday 27 Jan 2015 (Local Time) from KROC Reporting Station
Light Snow Light Snow  
Wind Chill: -17°   Ceiling: 1100
Heat Index: -9°   Visibility: 6mi
Dew Point: -12°   Wind: 16mph
Humidity: 81%   Direction: 30°NNE
Pressure: 29.97"   Gusts: NA
Location:  43.25°N, 78.19°W
Report Text: KROC 271154Z 03014KT 6SM -SN OVC011 M09/M12 A2997 RMK AO2 SLP162 4/002 P0000 60001 70016 T10891117 11067 21089 51012
Loading
Personal Weather Stations






























Interactive Weather Map New forecast layout! Learn more

10-Day Weather Forecast

Advertisements
Track Severe Weather on mobile